createdAt,value
2022-12-11T00:01:58.279Z,-2.08
2022-12-11T00:06:08.106Z,-2.05
2022-12-11T00:10:10.936Z,-2.10
2022-12-11T00:14:14.318Z,-2.11
2022-12-11T00:18:17.008Z,-2.11
2022-12-11T00:22:21.039Z,-2.11
2022-12-11T00:26:24.161Z,-2.04
2022-12-11T00:30:26.809Z,-2.01
2022-12-11T00:34:29.414Z,-2.00
2022-12-11T00:38:34.242Z,-1.96
2022-12-11T00:42:36.905Z,-2.04
2022-12-11T00:46:40.080Z,-2.02
2022-12-11T00:50:42.949Z,-2.07
2022-12-11T00:54:47.548Z,-2.06
2022-12-11T00:58:50.747Z,-2.09
2022-12-11T01:02:53.475Z,-2.07
2022-12-11T01:06:56.283Z,-2.10
2022-12-11T01:11:05.549Z,-2.06
2022-12-11T01:15:09.561Z,-2.05
2022-12-11T01:19:13.021Z,-2.05
2022-12-11T01:23:16.052Z,-2.06
2022-12-11T01:27:20.548Z,-2.04
2022-12-11T01:31:23.197Z,-2.04
2022-12-11T01:35:26.121Z,-2.05
2022-12-11T01:39:29.345Z,-2.05
2022-12-11T01:43:33.518Z,-2.07
2022-12-11T01:47:36.320Z,-2.06
2022-12-11T01:51:42.774Z,-2.09
2022-12-11T01:55:47.184Z,-2.08
2022-12-11T01:59:51.219Z,-2.11
2022-12-11T02:03:56.736Z,-2.17
2022-12-11T02:08:03.017Z,-2.15
2022-12-11T02:12:16.452Z,-2.18
2022-12-11T02:16:30.049Z,-2.23
2022-12-11T02:20:38.324Z,-2.25
2022-12-11T02:24:54.242Z,-2.25
2022-12-11T02:29:00.723Z,-2.29
2022-12-11T02:33:03.611Z,-2.31
2022-12-11T02:37:10.577Z,-2.35
2022-12-11T02:41:13.627Z,-2.38
2022-12-11T02:45:20.296Z,-2.40
2022-12-11T02:49:25.455Z,-2.43
2022-12-11T02:53:33.733Z,-2.45
2022-12-11T02:57:43.196Z,-2.46
2022-12-11T03:01:47.676Z,-2.53
2022-12-11T03:05:50.567Z,-2.59
2022-12-11T03:09:53.316Z,-2.63
2022-12-11T03:13:56.318Z,-2.72
2022-12-11T03:18:04.909Z,-2.75
2022-12-11T03:22:11.724Z,-2.85
2022-12-11T03:26:17.638Z,-2.96
2022-12-11T03:30:23.354Z,-2.99
2022-12-11T03:34:32.461Z,-3.04
2022-12-11T03:38:41.088Z,-3.00
2022-12-11T03:42:46.181Z,-3.04
2022-12-11T03:46:51.526Z,-3.01
2022-12-11T03:50:56.272Z,-3.13
2022-12-11T03:55:02.139Z,-3.21
2022-12-11T03:59:04.804Z,-3.26
2022-12-11T04:03:17.847Z,-3.28
2022-12-11T04:07:21.993Z,-3.25
2022-12-11T04:11:38.531Z,-3.29
2022-12-11T04:15:41.714Z,-3.36
2022-12-11T04:20:02.064Z,-3.42
2022-12-11T04:24:18.690Z,-3.46
2022-12-11T04:28:21.370Z,-3.50
2022-12-11T04:32:24.021Z,-3.50
2022-12-11T04:36:26.750Z,-3.54
2022-12-11T04:40:31.062Z,-3.54
2022-12-11T04:44:34.908Z,-3.58
2022-12-11T04:48:38.275Z,-3.54
2022-12-11T04:52:41.001Z,-3.57
2022-12-11T04:56:44.999Z,-3.55
2022-12-11T05:00:48.031Z,-3.57
2022-12-11T05:04:50.727Z,-3.54
2022-12-11T05:08:53.486Z,-3.60
2022-12-11T05:12:57.557Z,-3.56
2022-12-11T05:17:00.706Z,-3.57
2022-12-11T05:21:06.190Z,-3.56
2022-12-11T05:25:09.626Z,-3.51
2022-12-11T05:29:13.901Z,-3.51
2022-12-11T05:33:16.556Z,-3.50
2022-12-11T05:37:19.937Z,-3.53
2022-12-11T05:41:24.345Z,-3.56
2022-12-11T05:45:28.369Z,-3.60
2022-12-11T05:49:31.337Z,-3.63
2022-12-11T05:53:34.409Z,-3.63
2022-12-11T05:57:37.035Z,-3.66
2022-12-11T06:01:43.105Z,-3.66
2022-12-11T06:05:45.860Z,-3.69
2022-12-11T06:09:48.495Z,-3.67
2022-12-11T06:13:51.464Z,-3.71
2022-12-11T06:17:57.951Z,-3.74
2022-12-11T06:22:01.142Z,-3.81
2022-12-11T06:26:04.777Z,-3.86
2022-12-11T06:30:08.949Z,-3.81
2022-12-11T06:34:14.225Z,-3.85
2022-12-11T06:38:17.391Z,-3.86
2022-12-11T06:42:20.116Z,-3.82
2022-12-11T06:46:22.879Z,-3.86
2022-12-11T06:50:27.151Z,-3.84
2022-12-11T06:54:29.828Z,-3.88
2022-12-11T06:58:32.714Z,-3.93
2022-12-11T07:02:35.562Z,-4.01
2022-12-11T07:06:39.662Z,-3.98
2022-12-11T07:10:42.412Z,-3.98
2022-12-11T07:14:45.568Z,-3.94
2022-12-11T07:18:51.399Z,-3.92
2022-12-11T07:22:56.031Z,-3.91
2022-12-11T07:26:58.704Z,-3.85
2022-12-11T07:31:01.427Z,-3.79
2022-12-11T07:35:04.291Z,-3.76
2022-12-11T07:39:09.081Z,-3.71
2022-12-11T07:43:11.765Z,-3.68
2022-12-11T07:47:14.446Z,-3.66
2022-12-11T07:51:19.747Z,-3.62
2022-12-11T07:55:23.767Z,-1.73
2022-12-11T07:59:26.454Z,-0.50
2022-12-11T08:03:29.183Z,-0.78
2022-12-11T08:07:31.811Z,0.16
2022-12-11T08:11:36.233Z,1.11
2022-12-11T08:15:39.122Z,1.42
2022-12-11T08:19:41.988Z,1.25
2022-12-11T08:23:45.584Z,0.83
2022-12-11T08:27:49.609Z,0.83
2022-12-11T08:31:52.371Z,-0.01
2022-12-11T08:35:55.055Z,-1.15
2022-12-11T08:39:57.740Z,-1.94
2022-12-11T08:44:01.878Z,-2.36
2022-12-11T08:48:04.865Z,-2.51
2022-12-11T08:52:07.912Z,-2.47
2022-12-11T08:56:12.632Z,-2.59
2022-12-11T09:00:18.520Z,-2.62
2022-12-11T09:04:21.497Z,-2.27
2022-12-11T09:08:24.176Z,-2.01
2022-12-11T09:12:27.533Z,-2.05
2022-12-11T09:16:31.791Z,-2.45
2022-12-11T09:20:34.443Z,-2.61
2022-12-11T09:24:37.212Z,-2.59
2022-12-11T09:28:44.444Z,-2.69
2022-12-11T09:32:50.205Z,-2.59
2022-12-11T09:36:52.976Z,-2.62
2022-12-11T09:40:56.195Z,-2.62
2022-12-11T09:45:01.173Z,-2.67
2022-12-11T09:49:10.452Z,-2.62
2022-12-11T09:53:17.096Z,-2.59
2022-12-11T09:57:32.801Z,-2.24
2022-12-11T10:01:45.148Z,-2.14
2022-12-11T10:06:02.684Z,-2.10
2022-12-11T10:10:20.285Z,-1.88
2022-12-11T10:14:29.950Z,-2.05
2022-12-11T10:18:34.139Z,-2.06
2022-12-11T10:22:38.405Z,-2.09
2022-12-11T10:26:41.109Z,-1.91
2022-12-11T10:30:49.590Z,-1.23
2022-12-11T10:34:58.964Z,-0.79
2022-12-11T10:39:03.562Z,-0.77
2022-12-11T10:43:06.216Z,-0.47
2022-12-11T10:47:13.753Z,-0.84
2022-12-11T10:51:16.979Z,-1.25
2022-12-11T10:55:25.585Z,-1.54
2022-12-11T10:59:35.265Z,-1.86
2022-12-11T11:03:45.002Z,-2.04
2022-12-11T11:07:47.750Z,-2.04
2022-12-11T11:11:52.069Z,-2.13
2022-12-11T11:16:01.444Z,-2.02
2022-12-11T11:20:14.199Z,-2.07
2022-12-11T11:24:27.140Z,-2.12
2022-12-11T11:28:34.844Z,-2.27
2022-12-11T11:32:39.972Z,-2.48
2022-12-11T11:36:42.585Z,-2.49
2022-12-11T11:40:51.062Z,-2.64
2022-12-11T11:45:04.100Z,-2.65
2022-12-11T11:49:14.065Z,-2.68
2022-12-11T11:53:23.500Z,-2.70
2022-12-11T11:57:42.466Z,-2.80
2022-12-11T12:01:46.560Z,-2.73
2022-12-11T12:05:56.518Z,-2.58
2022-12-11T12:10:10.949Z,-2.36
2022-12-11T12:14:50.705Z,-2.19
2022-12-11T12:18:50.084Z,-2.19
2022-12-11T12:23:00.370Z,-2.28
2022-12-11T12:27:43.324Z,-2.16
2022-12-11T12:31:56.158Z,-1.71
2022-12-11T12:36:07.442Z,-1.11
2022-12-11T12:40:16.813Z,-1.45
2022-12-11T12:44:21.265Z,-1.77
2022-12-11T12:48:26.120Z,-1.22
2022-12-11T12:52:32.945Z,-1.25
2022-12-11T12:56:38.037Z,-0.67
2022-12-11T13:00:42.618Z,-0.68
2022-12-11T13:04:56.909Z,-0.89
2022-12-11T13:09:13.495Z,-1.25
2022-12-11T13:13:34.639Z,-0.86
2022-12-11T13:17:39.005Z,-1.46
2022-12-11T13:21:41.718Z,-1.69
2022-12-11T13:25:52.983Z,-1.08
2022-12-11T13:30:07.668Z,-1.10
2022-12-11T13:34:17.842Z,-0.52
2022-12-11T13:38:23.416Z,-0.83
2022-12-11T13:42:32.642Z,-0.94
2022-12-11T13:46:38.312Z,-1.52
2022-12-11T13:50:44.805Z,-1.90
2022-12-11T13:54:50.939Z,-2.13
2022-12-11T13:58:54.985Z,-1.65
2022-12-11T14:03:00.620Z,-1.14
2022-12-11T14:07:07.768Z,-1.85
2022-12-11T14:11:19.829Z,-2.22
2022-12-11T14:15:24.279Z,-2.34
2022-12-11T14:19:26.979Z,-2.41
2022-12-11T14:23:32.401Z,-2.36
2022-12-11T14:27:35.067Z,-2.43
2022-12-11T14:31:43.536Z,-2.43
2022-12-11T14:35:47.439Z,-2.40
2022-12-11T14:39:57.969Z,-2.51
2022-12-11T14:44:03.829Z,-2.50
2022-12-11T14:48:14.837Z,-2.50
2022-12-11T14:52:20.953Z,-2.47
2022-12-11T14:56:26.991Z,-2.52
2022-12-11T15:00:32.285Z,-2.55
2022-12-11T15:04:36.355Z,-2.63
2022-12-11T15:08:39.086Z,-2.66
2022-12-11T15:12:45.872Z,-2.66
2022-12-11T15:16:50.433Z,-2.65
2022-12-11T15:20:57.467Z,-2.67
2022-12-11T15:25:01.059Z,-2.64
2022-12-11T15:29:07.193Z,-2.68
2022-12-11T15:33:22.105Z,-2.72
2022-12-11T15:37:27.965Z,-2.74
2022-12-11T15:41:33.294Z,-2.83
2022-12-11T15:45:36.906Z,-2.87
2022-12-11T15:49:39.552Z,-2.95
2022-12-11T15:53:43.660Z,-2.92
2022-12-11T15:57:48.871Z,-3.01
2022-12-11T16:01:51.741Z,-2.99
2022-12-11T16:05:54.675Z,-3.01
2022-12-11T16:09:58.723Z,-3.00
2022-12-11T16:14:04.229Z,-2.71
2022-12-11T16:18:08.956Z,-2.55
2022-12-11T16:22:13.017Z,-2.83
2022-12-11T16:26:17.069Z,-2.94
2022-12-11T16:30:19.811Z,-2.97
2022-12-11T16:34:26.461Z,-3.00
2022-12-11T16:38:29.158Z,-3.00
2022-12-11T16:42:33.257Z,-3.04
2022-12-11T16:46:36.082Z,-3.01
2022-12-11T16:50:40.916Z,-3.05
2022-12-11T16:54:43.564Z,-3.06
2022-12-11T16:58:49.284Z,-3.10
2022-12-11T17:02:52.059Z,-3.12
2022-12-11T17:06:54.801Z,-3.11
2022-12-11T17:10:57.482Z,-3.12
2022-12-11T17:15:01.540Z,-3.17
2022-12-11T17:19:07.178Z,-3.20
2022-12-11T17:23:10.645Z,-3.30
2022-12-11T17:27:13.654Z,-3.31
2022-12-11T17:31:19.268Z,-3.36
2022-12-11T17:35:22.163Z,-3.40
2022-12-11T17:39:24.941Z,-3.47
2022-12-11T17:43:27.684Z,-3.49
2022-12-11T17:47:31.793Z,-3.58
2022-12-11T17:51:34.428Z,-3.59
2022-12-11T17:55:42.787Z,-3.64
2022-12-11T17:59:46.070Z,-3.68
2022-12-11T18:03:50.105Z,-3.73
2022-12-11T18:07:57.467Z,-3.77
2022-12-11T18:12:00.724Z,-3.77
2022-12-11T18:16:05.723Z,-3.79
2022-12-11T18:20:14.493Z,-3.82
2022-12-11T18:24:17.375Z,-3.84
2022-12-11T18:28:20.438Z,-3.84
2022-12-11T18:32:23.100Z,-3.88
2022-12-11T18:36:27.207Z,-3.88
2022-12-11T18:40:29.962Z,-3.94
2022-12-11T18:44:32.661Z,-3.95
2022-12-11T18:48:36.139Z,-3.97
2022-12-11T18:52:40.174Z,-4.04
2022-12-11T18:56:42.818Z,-4.07
2022-12-11T19:00:46.096Z,-4.14
2022-12-11T19:04:49.113Z,-4.17
2022-12-11T19:08:53.596Z,-4.18
2022-12-11T19:12:56.289Z,-4.24
2022-12-11T19:16:58.980Z,-4.31
2022-12-11T19:21:08.491Z,-4.33
2022-12-11T19:25:13.885Z,-4.40
2022-12-11T19:29:21.268Z,-4.42
2022-12-11T19:33:23.980Z,-4.42
2022-12-11T19:37:26.661Z,-4.41
2022-12-11T19:41:32.097Z,-4.39
2022-12-11T19:45:34.800Z,-4.41
2022-12-11T19:49:37.550Z,-4.37
2022-12-11T19:53:41.332Z,-4.42
2022-12-11T19:57:45.444Z,-4.40
2022-12-11T20:01:48.932Z,-4.44
2022-12-11T20:05:51.744Z,-4.45
2022-12-11T20:09:54.428Z,-4.53
2022-12-11T20:13:58.524Z,-4.59
2022-12-11T20:18:02.535Z,-4.58
2022-12-11T20:22:05.610Z,-4.63
2022-12-11T20:26:09.321Z,-4.63
2022-12-11T20:30:14.623Z,-4.64
2022-12-11T20:34:17.478Z,-4.72
2022-12-11T20:38:21.067Z,-4.76
2022-12-11T20:42:23.793Z,-4.76
2022-12-11T20:46:28.873Z,-4.80
2022-12-11T20:50:31.529Z,-4.78
2022-12-11T20:54:34.481Z,-4.78
2022-12-11T20:58:37.645Z,-4.77
2022-12-11T21:02:41.669Z,-4.78
2022-12-11T21:06:44.494Z,-4.76
2022-12-11T21:10:47.499Z,-4.77
2022-12-11T21:14:50.199Z,-4.74
2022-12-11T21:18:55.323Z,-4.70
2022-12-11T21:22:58.095Z,-4.70
2022-12-11T21:27:00.815Z,-4.65
2022-12-11T21:31:05.731Z,-4.64
2022-12-11T21:35:10.834Z,-4.59
2022-12-11T21:39:14.593Z,-4.55
2022-12-11T21:43:17.267Z,-4.53
2022-12-11T21:47:20.080Z,-4.52
2022-12-11T21:51:31.080Z,-4.51
2022-12-11T21:55:41.339Z,-4.51
2022-12-11T21:59:43.967Z,-4.49
2022-12-11T22:03:47.056Z,-4.47
2022-12-11T22:07:51.103Z,-4.43
2022-12-11T22:11:58.367Z,-4.39
2022-12-11T22:16:01.554Z,-4.39
2022-12-11T22:20:05.174Z,-4.37
2022-12-11T22:24:09.415Z,-4.39
2022-12-11T22:28:12.113Z,-4.37
2022-12-11T22:32:14.748Z,-4.39
2022-12-11T22:36:18.934Z,-4.35
2022-12-11T22:40:23.099Z,-4.34
2022-12-11T22:44:25.776Z,-4.39
2022-12-11T22:48:28.399Z,-4.40
2022-12-11T22:52:31.111Z,-4.35
2022-12-11T22:56:35.093Z,-4.36
2022-12-11T23:00:37.768Z,-4.34
2022-12-11T23:04:40.395Z,-4.36
2022-12-11T23:08:43.896Z,-4.31
2022-12-11T23:12:48.036Z,-4.31
2022-12-11T23:16:51.019Z,-4.34
2022-12-11T23:20:53.687Z,-4.32
2022-12-11T23:24:56.312Z,-4.43
2022-12-11T23:29:00.943Z,-4.48
2022-12-11T23:33:03.584Z,-4.53
2022-12-11T23:37:06.242Z,-4.54
2022-12-11T23:41:10.287Z,-4.57
2022-12-11T23:45:14.712Z,-4.57
2022-12-11T23:49:17.594Z,-4.54
2022-12-11T23:53:20.261Z,-4.49
2022-12-11T23:57:23.176Z,-4.48
